sensor_id;sensor_type;location;lat;lon;timestamp;pressure;altitude;pressure_sealevel;temperature;humidity
60589;BME280;46421;48.610;9.334;2022-12-10T00:01:43;96774.28;;;0.41;100.00
60589;BME280;46421;48.610;9.334;2022-12-10T00:04:10;96772.19;;;0.45;100.00
60589;BME280;46421;48.610;9.334;2022-12-10T00:06:37;96766.84;;;0.46;100.00
60589;BME280;46421;48.610;9.334;2022-12-10T00:09:05;96760.38;;;0.41;100.00
60589;BME280;46421;48.610;9.334;2022-12-10T00:11:31;96758.75;;;0.40;100.00
60589;BME280;46421;48.610;9.334;2022-12-10T00:13:57;96763.22;;;0.47;100.00
60589;BME280;46421;48.610;9.334;2022-12-10T00:16:25;96761.41;;;0.58;100.00
60589;BME280;46421;48.610;9.334;2022-12-10T00:18:52;96755.06;;;0.60;100.00
60589;BME280;46421;48.610;9.334;2022-12-10T00:21:21;96756.19;;;0.58;100.00
60589;BME280;46421;48.610;9.334;2022-12-10T00:23:47;96753.72;;;0.56;100.00
60589;BME280;46421;48.610;9.334;2022-12-10T00:26:21;96758.25;;;0.54;100.00
60589;BME280;46421;48.610;9.334;2022-12-10T00:28:48;96756.91;;;0.50;100.00
60589;BME280;46421;48.610;9.334;2022-12-10T00:31:16;96758.88;;;0.38;100.00
60589;BME280;46421;48.610;9.334;2022-12-10T00:33:43;96756.97;;;0.30;100.00
60589;BME280;46421;48.610;9.334;2022-12-10T00:36:15;96757.41;;;0.26;100.00
60589;BME280;46421;48.610;9.334;2022-12-10T00:38:42;96759.22;;;0.25;100.00
60589;BME280;46421;48.610;9.334;2022-12-10T00:41:08;96753.44;;;0.22;100.00
60589;BME280;46421;48.610;9.334;2022-12-10T00:43:34;96766.38;;;0.23;100.00
60589;BME280;46421;48.610;9.334;2022-12-10T00:46:00;96765.78;;;0.29;100.00
60589;BME280;46421;48.610;9.334;2022-12-10T00:48:26;96763.06;;;0.31;100.00
60589;BME280;46421;48.610;9.334;2022-12-10T00:51:03;96773.31;;;0.42;100.00
60589;BME280;46421;48.610;9.334;2022-12-10T00:53:30;96774.81;;;0.45;100.00
60589;BME280;46421;48.610;9.334;2022-12-10T00:55:56;96775.06;;;0.52;100.00
60589;BME280;46421;48.610;9.334;2022-12-10T00:58:22;96777.63;;;0.61;100.00
60589;BME280;46421;48.610;9.334;2022-12-10T01:00:48;96770.75;;;0.60;100.00
60589;BME280;46421;48.610;9.334;2022-12-10T01:03:14;96772.25;;;0.63;100.00
60589;BME280;46421;48.610;9.334;2022-12-10T01:05:39;96781.22;;;0.60;100.00
60589;BME280;46421;48.610;9.334;2022-12-10T01:08:05;96783.19;;;0.49;100.00
60589;BME280;46421;48.610;9.334;2022-12-10T01:10:30;96780.56;;;0.49;100.00
60589;BME280;46421;48.610;9.334;2022-12-10T01:12:56;96786.88;;;0.56;100.00
60589;BME280;46421;48.610;9.334;2022-12-10T01:15:21;96790.00;;;0.69;100.00
60589;BME280;46421;48.610;9.334;2022-12-10T01:17:46;96790.28;;;0.66;100.00
60589;BME280;46421;48.610;9.334;2022-12-10T01:20:12;96798.66;;;0.70;100.00
60589;BME280;46421;48.610;9.334;2022-12-10T01:22:37;96801.97;;;0.72;100.00
60589;BME280;46421;48.610;9.334;2022-12-10T01:25:03;96810.94;;;0.69;100.00
60589;BME280;46421;48.610;9.334;2022-12-10T01:27:29;96816.44;;;0.66;100.00
60589;BME280;46421;48.610;9.334;2022-12-10T01:29:54;96815.56;;;0.75;100.00
60589;BME280;46421;48.610;9.334;2022-12-10T01:32:19;96816.25;;;0.77;100.00
60589;BME280;46421;48.610;9.334;2022-12-10T01:34:45;96813.66;;;0.77;100.00
60589;BME280;46421;48.610;9.334;2022-12-10T01:37:10;96811.03;;;0.77;100.00
60589;BME280;46421;48.610;9.334;2022-12-10T01:39:36;96819.53;;;0.79;100.00
60589;BME280;46421;48.610;9.334;2022-12-10T01:42:02;96819.16;;;0.74;100.00
60589;BME280;46421;48.610;9.334;2022-12-10T01:46:55;96824.97;;;0.68;100.00
60589;BME280;46421;48.610;9.334;2022-12-10T01:51:51;96824.50;;;0.83;100.00
60589;BME280;46421;48.610;9.334;2022-12-10T01:54:23;96824.53;;;0.73;100.00
60589;BME280;46421;48.610;9.334;2022-12-10T01:56:54;96824.66;;;0.71;100.00
60589;BME280;46421;48.610;9.334;2022-12-10T01:59:22;96829.91;;;0.71;100.00
60589;BME280;46421;48.610;9.334;2022-12-10T02:01:57;96821.41;;;0.69;100.00
60589;BME280;46421;48.610;9.334;2022-12-10T02:04:40;96817.06;;;0.78;100.00
60589;BME280;46421;48.610;9.334;2022-12-10T02:07:21;96827.59;;;0.68;100.00
60589;BME280;46421;48.610;9.334;2022-12-10T02:09:54;96816.72;;;0.63;100.00
60589;BME280;46421;48.610;9.334;2022-12-10T02:12:39;96813.44;;;0.61;100.00
60589;BME280;46421;48.610;9.334;2022-12-10T02:15:17;96816.69;;;0.73;100.00
60589;BME280;46421;48.610;9.334;2022-12-10T02:17:50;96829.47;;;0.76;100.00
60589;BME280;46421;48.610;9.334;2022-12-10T02:20:18;96827.91;;;0.83;100.00
60589;BME280;46421;48.610;9.334;2022-12-10T02:22:54;96820.75;;;0.85;100.00
60589;BME280;46421;48.610;9.334;2022-12-10T02:25:25;96826.81;;;0.86;100.00
60589;BME280;46421;48.610;9.334;2022-12-10T02:28:03;96820.97;;;0.64;100.00
60589;BME280;46421;48.610;9.334;2022-12-10T02:30:31;96829.41;;;0.58;100.00
60589;BME280;46421;48.610;9.334;2022-12-10T02:33:00;96823.38;;;0.47;100.00
60589;BME280;46421;48.610;9.334;2022-12-10T02:35:30;96813.34;;;0.53;100.00
60589;BME280;46421;48.610;9.334;2022-12-10T02:38:06;96813.56;;;0.59;100.00
60589;BME280;46421;48.610;9.334;2022-12-10T02:40:35;96812.00;;;0.67;100.00
60589;BME280;46421;48.610;9.334;2022-12-10T02:43:02;96810.34;;;0.75;100.00
60589;BME280;46421;48.610;9.334;2022-12-10T02:45:29;96812.38;;;0.82;100.00
60589;BME280;46421;48.610;9.334;2022-12-10T02:47:57;96811.03;;;0.77;100.00
60589;BME280;46421;48.610;9.334;2022-12-10T02:50:24;96793.53;;;0.78;100.00
60589;BME280;46421;48.610;9.334;2022-12-10T02:52:49;96783.34;;;0.75;100.00
60589;BME280;46421;48.610;9.334;2022-12-10T02:55:15;96788.53;;;0.85;100.00
60589;BME280;46421;48.610;9.334;2022-12-10T03:00:22;96789.72;;;0.90;100.00
60589;BME280;46421;48.610;9.334;2022-12-10T03:05:56;96790.47;;;0.83;100.00
60589;BME280;46421;48.610;9.334;2022-12-10T03:08:28;96795.13;;;0.89;100.00
60589;BME280;46421;48.610;9.334;2022-12-10T03:13:28;96785.06;;;0.66;100.00
60589;BME280;46421;48.610;9.334;2022-12-10T03:15:55;96786.75;;;0.57;100.00
60589;BME280;46421;48.610;9.334;2022-12-10T03:18:24;96781.22;;;0.60;100.00
60589;BME280;46421;48.610;9.334;2022-12-10T03:20:53;96785.47;;;0.61;100.00
60589;BME280;46421;48.610;9.334;2022-12-10T03:23:19;96783.72;;;0.62;100.00
60589;BME280;46421;48.610;9.334;2022-12-10T03:25:48;96784.13;;;0.57;100.00
60589;BME280;46421;48.610;9.334;2022-12-10T03:28:16;96771.34;;;0.54;100.00
60589;BME280;46421;48.610;9.334;2022-12-10T03:30:43;96763.53;;;0.44;100.00
60589;BME280;46421;48.610;9.334;2022-12-10T03:33:09;96766.44;;;0.41;100.00
60589;BME280;46421;48.610;9.334;2022-12-10T03:35:35;96761.31;;;0.50;100.00
60589;BME280;46421;48.610;9.334;2022-12-10T03:38:01;96762.91;;;0.60;100.00
60589;BME280;46421;48.610;9.334;2022-12-10T03:40:27;96763.16;;;0.67;100.00
60589;BME280;46421;48.610;9.334;2022-12-10T03:42:52;96762.41;;;0.75;100.00
60589;BME280;46421;48.610;9.334;2022-12-10T03:45:17;96754.19;;;0.70;100.00
60589;BME280;46421;48.610;9.334;2022-12-10T03:47:43;96754.03;;;0.71;100.00
60589;BME280;46421;48.610;9.334;2022-12-10T03:50:10;96761.31;;;0.77;100.00
60589;BME280;46421;48.610;9.334;2022-12-10T03:52:35;96769.44;;;0.74;100.00
60589;BME280;46421;48.610;9.334;2022-12-10T03:55:01;96781.22;;;0.88;100.00
60589;BME280;46421;48.610;9.334;2022-12-10T03:57:27;96786.75;;;0.85;100.00
60589;BME280;46421;48.610;9.334;2022-12-10T03:59:52;96786.22;;;0.82;100.00
60589;BME280;46421;48.610;9.334;2022-12-10T04:02:17;96793.53;;;0.78;100.00
60589;BME280;46421;48.610;9.334;2022-12-10T04:04:43;96788.56;;;0.75;100.00
60589;BME280;46421;48.610;9.334;2022-12-10T04:07:08;96795.47;;;0.76;100.00
60589;BME280;46421;48.610;9.334;2022-12-10T04:09:34;96803.75;;;0.71;100.00
60589;BME280;46421;48.610;9.334;2022-12-10T04:11:59;96800.09;;;0.82;100.00
60589;BME280;46421;48.610;9.334;2022-12-10T04:14:26;96805.59;;;0.89;100.00
60589;BME280;46421;48.610;9.334;2022-12-10T04:17:11;96813.28;;;0.90;100.00
60589;BME280;46421;48.610;9.334;2022-12-10T04:19:37;96813.00;;;0.93;100.00
60589;BME280;46421;48.610;9.334;2022-12-10T04:22:02;96812.75;;;0.87;100.00
60589;BME280;46421;48.610;9.334;2022-12-10T04:24:47;96821.53;;;0.96;100.00
60589;BME280;46421;48.610;9.334;2022-12-10T04:27:40;96828.97;;;1.00;100.00
60589;BME280;46421;48.610;9.334;2022-12-10T04:30:08;96830.94;;;0.88;100.00
60589;BME280;46421;48.610;9.334;2022-12-10T04:32:34;96831.97;;;0.77;100.00
60589;BME280;46421;48.610;9.334;2022-12-10T04:34:59;96837.31;;;0.76;100.00
60589;BME280;46421;48.610;9.334;2022-12-10T04:37:27;96842.16;;;0.71;100.00
60589;BME280;46421;48.610;9.334;2022-12-10T04:39:53;96833.19;;;0.73;100.00
60589;BME280;46421;48.610;9.334;2022-12-10T04:42:20;96831.97;;;0.77;100.00
60589;BME280;46421;48.610;9.334;2022-12-10T04:44:46;96832.63;;;0.79;100.00
60589;BME280;46421;48.610;9.334;2022-12-10T04:47:12;96840.63;;;0.78;100.00
60589;BME280;46421;48.610;9.334;2022-12-10T04:49:38;96840.94;;;0.65;100.00
60589;BME280;46421;48.610;9.334;2022-12-10T04:52:04;96840.72;;;0.49;100.00
60589;BME280;46421;48.610;9.334;2022-12-10T04:54:29;96837.44;;;0.46;100.00
60589;BME280;46421;48.610;9.334;2022-12-10T04:56:55;96836.88;;;0.43;100.00
60589;BME280;46421;48.610;9.334;2022-12-10T04:59:20;96836.63;;;0.36;100.00
60589;BME280;46421;48.610;9.334;2022-12-10T05:01:46;96836.06;;;0.42;100.00
60589;BME280;46421;48.610;9.334;2022-12-10T05:04:14;96837.13;;;0.50;100.00
60589;BME280;46421;48.610;9.334;2022-12-10T05:06:40;96829.28;;;0.50;100.00
60589;BME280;46421;48.610;9.334;2022-12-10T05:09:06;96828.88;;;0.54;100.00
60589;BME280;46421;48.610;9.334;2022-12-10T05:11:32;96829.25;;;0.59;100.00
60589;BME280;46421;48.610;9.334;2022-12-10T05:13:58;96835.38;;;0.50;100.00
60589;BME280;46421;48.610;9.334;2022-12-10T05:16:26;96828.19;;;0.52;100.00
60589;BME280;46421;48.610;9.334;2022-12-10T05:18:53;96825.72;;;0.51;100.00
60589;BME280;46421;48.610;9.334;2022-12-10T05:21:20;96821.44;;;0.50;100.00
60589;BME280;46421;48.610;9.334;2022-12-10T05:23:49;96818.84;;;0.50;100.00
60589;BME280;46421;48.610;9.334;2022-12-10T05:26:17;96817.03;;;0.60;100.00
60589;BME280;46421;48.610;9.334;2022-12-10T05:28:45;96812.59;;;0.60;100.00
60589;BME280;46421;48.610;9.334;2022-12-10T05:31:22;96807.13;;;0.54;100.00
60589;BME280;46421;48.610;9.334;2022-12-10T05:33:48;96817.50;;;0.45;100.00
60589;BME280;46421;48.610;9.334;2022-12-10T05:36:17;96820.50;;;0.51;100.00
60589;BME280;46421;48.610;9.334;2022-12-10T05:38:43;96811.69;;;0.52;100.00
60589;BME280;46421;48.610;9.334;2022-12-10T05:41:11;96813.88;;;0.56;100.00
60589;BME280;46421;48.610;9.334;2022-12-10T05:43:37;96812.06;;;0.57;100.00
60589;BME280;46421;48.610;9.334;2022-12-10T05:46:04;96822.06;;;0.71;100.00
60589;BME280;46421;48.610;9.334;2022-12-10T05:48:31;96829.47;;;0.76;100.00
60589;BME280;46421;48.610;9.334;2022-12-10T05:50:57;96836.06;;;0.80;100.00
60589;BME280;46421;48.610;9.334;2022-12-10T05:53:23;96832.25;;;0.74;100.00
60589;BME280;46421;48.610;9.334;2022-12-10T05:55:49;96841.59;;;0.77;100.00
60589;BME280;46421;48.610;9.334;2022-12-10T05:58:15;96831.81;;;0.79;100.00
60589;BME280;46421;48.610;9.334;2022-12-10T06:00:41;96836.50;;;0.75;100.00
60589;BME280;46421;48.610;9.334;2022-12-10T06:03:07;96844.78;;;0.71;100.00
60589;BME280;46421;48.610;9.334;2022-12-10T06:05:39;96833.78;;;0.67;100.00
60589;BME280;46421;48.610;9.334;2022-12-10T06:08:05;96837.38;;;0.66;100.00
60589;BME280;46421;48.610;9.334;2022-12-10T06:10:34;96836.78;;;0.72;100.00
60589;BME280;46421;48.610;9.334;2022-12-10T06:13:00;96836.50;;;0.75;100.00
60589;BME280;46421;48.610;9.334;2022-12-10T06:15:25;96846.97;;;0.75;100.00
60589;BME280;46421;48.610;9.334;2022-12-10T06:17:51;96849.16;;;0.80;100.00
60589;BME280;46421;48.610;9.334;2022-12-10T06:20:17;96852.97;;;0.86;100.00
60589;BME280;46421;48.610;9.334;2022-12-10T06:22:42;96846.28;;;1.01;100.00
60589;BME280;46421;48.610;9.334;2022-12-10T06:25:08;96858.72;;;0.99;100.00
60589;BME280;46421;48.610;9.334;2022-12-10T06:27:33;96861.13;;;1.10;100.00
60589;BME280;46421;48.610;9.334;2022-12-10T06:29:59;96865.63;;;1.18;100.00
60589;BME280;46421;48.610;9.334;2022-12-10T06:32:24;96874.41;;;0.99;100.00
60589;BME280;46421;48.610;9.334;2022-12-10T06:34:49;96870.56;;;1.21;100.00
60589;BME280;46421;48.610;9.334;2022-12-10T06:37:15;96870.94;;;1.08;100.00
60589;BME280;46421;48.610;9.334;2022-12-10T06:39:40;96876.16;;;1.08;100.00
60589;BME280;46421;48.610;9.334;2022-12-10T06:42:06;96865.72;;;0.99;100.00
60589;BME280;46421;48.610;9.334;2022-12-10T06:44:31;96881.84;;;0.94;100.00
60589;BME280;46421;48.610;9.334;2022-12-10T06:46:56;96880.31;;;1.01;100.00
60589;BME280;46421;48.610;9.334;2022-12-10T06:49:22;96871.09;;;1.25;100.00
60589;BME280;46421;48.610;9.334;2022-12-10T06:51:47;96871.34;;;1.32;100.00
60589;BME280;46421;48.610;9.334;2022-12-10T06:54:13;96869.47;;;1.24;100.00
60589;BME280;46421;48.610;9.334;2022-12-10T06:56:38;96869.38;;;1.16;100.00
60589;BME280;46421;48.610;9.334;2022-12-10T06:59:05;96872.91;;;1.24;100.00
60589;BME280;46421;48.610;9.334;2022-12-10T07:01:31;96877.50;;;1.13;100.00
60589;BME280;46421;48.610;9.334;2022-12-10T07:03:57;96878.78;;;1.08;100.00
60589;BME280;46421;48.610;9.334;2022-12-10T07:06:24;96886.53;;;1.00;100.00
60589;BME280;46421;48.610;9.334;2022-12-10T07:08:50;96883.22;;;0.98;100.00
60589;BME280;46421;48.610;9.334;2022-12-10T07:11:18;96888.16;;;1.01;100.00
60589;BME280;46421;48.610;9.334;2022-12-10T07:13:45;96893.22;;;1.13;100.00
60589;BME280;46421;48.610;9.334;2022-12-10T07:16:22;96896.31;;;1.26;100.00
60589;BME280;46421;48.610;9.334;2022-12-10T07:18:48;96895.06;;;1.30;100.00
60589;BME280;46421;48.610;9.334;2022-12-10T07:23:40;96888.19;;;1.29;100.00
60589;BME280;46421;48.610;9.334;2022-12-10T07:26:05;96898.66;;;1.29;100.00
60589;BME280;46421;48.610;9.334;2022-12-10T07:28:30;96900.25;;;1.40;100.00
60589;BME280;46421;48.610;9.334;2022-12-10T07:31:06;96896.84;;;1.57;100.00
60589;BME280;46421;48.610;9.334;2022-12-10T07:33:32;96901.66;;;1.52;100.00
60589;BME280;46421;48.610;9.334;2022-12-10T07:35:58;96902.19;;;1.56;100.00
60589;BME280;46421;48.610;9.334;2022-12-10T07:38:24;96907.13;;;1.41;100.00
60589;BME280;46421;48.610;9.334;2022-12-10T07:40:50;96918.84;;;1.65;100.00
60589;BME280;46421;48.610;9.334;2022-12-10T07:43:16;96921.81;;;1.52;100.00
60589;BME280;46421;48.610;9.334;2022-12-10T07:45:41;96922.22;;;1.29;100.00
60589;BME280;46421;48.610;9.334;2022-12-10T07:48:06;96927.25;;;1.13;100.00
60589;BME280;46421;48.610;9.334;2022-12-10T07:50:32;96929.47;;;1.07;100.00
60589;BME280;46421;48.610;9.334;2022-12-10T07:52:58;96927.50;;;1.19;100.00
60589;BME280;46421;48.610;9.334;2022-12-10T07:55:23;96932.00;;;1.27;100.00
60589;BME280;46421;48.610;9.334;2022-12-10T07:57:48;96934.28;;;1.12;100.00
60589;BME280;46421;48.610;9.334;2022-12-10T08:00:14;96924.47;;;1.14;100.00
60589;BME280;46421;48.610;9.334;2022-12-10T08:02:40;96926.28;;;1.14;100.00
60589;BME280;46421;48.610;9.334;2022-12-10T08:05:05;96928.69;;;1.25;100.00
60589;BME280;46421;48.610;9.334;2022-12-10T08:07:31;96934.00;;;1.43;100.00
60589;BME280;46421;48.610;9.334;2022-12-10T08:09:57;96930.16;;;1.37;100.00
60589;BME280;46421;48.610;9.334;2022-12-10T08:12:22;96933.41;;;1.49;100.00
60589;BME280;46421;48.610;9.334;2022-12-10T08:14:47;96942.97;;;1.40;100.00
60589;BME280;46421;48.610;9.334;2022-12-10T08:17:13;96932.88;;;1.46;100.00
60589;BME280;46421;48.610;9.334;2022-12-10T08:19:38;96929.84;;;1.50;100.00
60589;BME280;46421;48.610;9.334;2022-12-10T08:22:04;96931.69;;;1.58;100.00
60589;BME280;46421;48.610;9.334;2022-12-10T08:24:29;96944.06;;;1.48;100.00
60589;BME280;46421;48.610;9.334;2022-12-10T08:26:54;96945.41;;;1.70;100.00
60589;BME280;46421;48.610;9.334;2022-12-10T08:29:20;96944.59;;;1.51;100.00
60589;BME280;46421;48.610;9.334;2022-12-10T08:31:46;96941.13;;;1.51;100.00
60589;BME280;46421;48.610;9.334;2022-12-10T08:34:16;96942.97;;;1.68;99.77
60589;BME280;46421;48.610;9.334;2022-12-10T08:36:43;96951.53;;;1.61;100.00
60589;BME280;46421;48.610;9.334;2022-12-10T08:39:08;96960.72;;;1.47;100.00
60589;BME280;46421;48.610;9.334;2022-12-10T08:41:35;96962.75;;;1.53;100.00
60589;BME280;46421;48.610;9.334;2022-12-10T08:44:01;96971.41;;;1.63;100.00
60589;BME280;46421;48.610;9.334;2022-12-10T08:46:27;96975.84;;;1.53;100.00
60589;BME280;46421;48.610;9.334;2022-12-10T08:48:53;96968.47;;;1.66;100.00
60589;BME280;46421;48.610;9.334;2022-12-10T08:51:19;96975.91;;;1.71;100.00
60589;BME280;46421;48.610;9.334;2022-12-10T08:53:45;96972.25;;;1.82;100.00
60589;BME280;46421;48.610;9.334;2022-12-10T08:56:11;96968.06;;;1.89;100.00
60589;BME280;46421;48.610;9.334;2022-12-10T08:58:37;96961.25;;;1.96;99.37
60589;BME280;46421;48.610;9.334;2022-12-10T09:01:11;96953.97;;;2.26;97.08
60589;BME280;46421;48.610;9.334;2022-12-10T09:03:37;96949.97;;;2.58;95.09
60589;BME280;46421;48.610;9.334;2022-12-10T09:06:05;96965.84;;;2.75;94.70
60589;BME280;46421;48.610;9.334;2022-12-10T09:08:31;96967.16;;;2.71;95.82
60589;BME280;46421;48.610;9.334;2022-12-10T09:10:56;96971.72;;;2.68;93.42
60589;BME280;46421;48.610;9.334;2022-12-10T09:13:22;96975.38;;;2.76;90.66
60589;BME280;46421;48.610;9.334;2022-12-10T09:15:51;96976.19;;;2.76;88.47
60589;BME280;46421;48.610;9.334;2022-12-10T09:18:17;96978.78;;;2.50;91.12
60589;BME280;46421;48.610;9.334;2022-12-10T09:20:42;96982.06;;;2.52;92.78
60589;BME280;46421;48.610;9.334;2022-12-10T09:23:07;96982.81;;;2.62;91.73
60589;BME280;46421;48.610;9.334;2022-12-10T09:25:33;96983.34;;;2.30;93.43
60589;BME280;46421;48.610;9.334;2022-12-10T09:27:58;96987.56;;;2.22;93.52
60589;BME280;46421;48.610;9.334;2022-12-10T09:30:23;96983.59;;;2.36;92.50
60589;BME280;46421;48.610;9.334;2022-12-10T09:32:49;96995.81;;;2.46;93.88
60589;BME280;46421;48.610;9.334;2022-12-10T09:35:14;96999.28;;;2.73;89.92
60589;BME280;46421;48.610;9.334;2022-12-10T09:37:40;97005.06;;;2.58;90.01
60589;BME280;46421;48.610;9.334;2022-12-10T09:40:05;97005.16;;;2.48;91.53
60589;BME280;46421;48.610;9.334;2022-12-10T09:42:36;97012.38;;;2.28;92.81
60589;BME280;46421;48.610;9.334;2022-12-10T09:45:09;97015.06;;;2.18;94.58
60589;BME280;46421;48.610;9.334;2022-12-10T09:47:55;96997.22;;;2.40;92.67
60589;BME280;46421;48.610;9.334;2022-12-10T09:50:55;97007.72;;;2.22;94.45
60589;BME280;46421;48.610;9.334;2022-12-10T09:53:27;97002.13;;;1.89;95.31
60589;BME280;46421;48.610;9.334;2022-12-10T09:55:54;97001.56;;;1.67;95.70
60589;BME280;46421;48.610;9.334;2022-12-10T09:58:22;97004.38;;;1.84;96.56
60589;BME280;46421;48.610;9.334;2022-12-10T10:01:03;97002.38;;;1.96;95.30
60589;BME280;46421;48.610;9.334;2022-12-10T10:03:38;96991.56;;;1.99;96.68
60589;BME280;46421;48.610;9.334;2022-12-10T10:06:05;96991.75;;;2.15;96.19
60589;BME280;46421;48.610;9.334;2022-12-10T10:08:33;96987.78;;;1.93;96.48
60589;BME280;46421;48.610;9.334;2022-12-10T10:11:00;96999.09;;;2.12;95.63
60589;BME280;46421;48.610;9.334;2022-12-10T10:15:52;96995.81;;;2.10;94.44
60589;BME280;46421;48.610;9.334;2022-12-10T10:20:53;96996.19;;;2.15;94.57
60589;BME280;46421;48.610;9.334;2022-12-10T10:23:19;96989.50;;;2.39;93.27
60589;BME280;46421;48.610;9.334;2022-12-10T10:25:45;96982.94;;;2.79;91.57
60589;BME280;46421;48.610;9.334;2022-12-10T10:28:13;96982.44;;;2.75;91.45
60589;BME280;46421;48.610;9.334;2022-12-10T10:30:44;96987.69;;;2.75;92.89
60589;BME280;46421;48.610;9.334;2022-12-10T10:33:11;96993.25;;;2.98;90.59
60589;BME280;46421;48.610;9.334;2022-12-10T10:36:03;96990.16;;;3.03;89.40
60589;BME280;46421;48.610;9.334;2022-12-10T10:38:29;96984.28;;;3.09;88.37
60589;BME280;46421;48.610;9.334;2022-12-10T10:40:59;96983.34;;;2.92;89.47
60589;BME280;46421;48.610;9.334;2022-12-10T10:43:31;96998.31;;;2.74;90.53
60589;BME280;46421;48.610;9.334;2022-12-10T10:46:04;97019.53;;;2.80;90.47
60589;BME280;46421;48.610;9.334;2022-12-10T10:48:30;97025.47;;;3.09;89.97
60589;BME280;46421;48.610;9.334;2022-12-10T10:56:10;97021.03;;;3.09;87.20
60589;BME280;46421;48.610;9.334;2022-12-10T11:01:24;97016.63;;;3.10;88.89
60589;BME280;46421;48.610;9.334;2022-12-10T11:03:58;97016.88;;;3.25;86.28
60589;BME280;46421;48.610;9.334;2022-12-10T11:06:25;97022.00;;;3.35;85.80
60589;BME280;46421;48.610;9.334;2022-12-10T11:08:53;97009.84;;;3.07;87.47
60589;BME280;46421;48.610;9.334;2022-12-10T11:11:40;97019.38;;;2.82;90.49
60589;BME280;46421;48.610;9.334;2022-12-10T11:14:15;97030.84;;;2.81;89.73
60589;BME280;46421;48.610;9.334;2022-12-10T11:16:41;97031.28;;;2.76;87.62
60589;BME280;46421;48.610;9.334;2022-12-10T11:19:19;97020.28;;;2.73;88.69
60589;BME280;46421;48.610;9.334;2022-12-10T11:21:46;97019.06;;;2.85;85.33
60589;BME280;46421;48.610;9.334;2022-12-10T11:24:17;97023.38;;;2.68;85.15
60589;BME280;46421;48.610;9.334;2022-12-10T11:26:59;97020.56;;;2.88;84.95
60589;BME280;46421;48.610;9.334;2022-12-10T11:35:36;97028.91;;;2.83;85.94
60589;BME280;46421;48.610;9.334;2022-12-10T11:39:01;97025.69;;;2.71;88.07
60589;BME280;46421;48.610;9.334;2022-12-10T11:50:07;97011.00;;;3.05;82.30
60589;BME280;46421;48.610;9.334;2022-12-10T11:52:44;97011.19;;;3.38;79.78
60589;BME280;46421;48.610;9.334;2022-12-10T11:55:33;97008.06;;;3.34;79.99
60589;BME280;46421;48.610;9.334;2022-12-10T12:00:50;97004.59;;;3.07;82.21
60589;BME280;46421;48.610;9.334;2022-12-10T12:03:54;97019.59;;;3.15;80.06
60589;BME280;46421;48.610;9.334;2022-12-10T12:06:46;97023.94;;;3.24;81.90
60589;BME280;46421;48.610;9.334;2022-12-10T12:09:32;97027.47;;;3.15;81.77
60589;BME280;46421;48.610;9.334;2022-12-10T12:14:48;97031.44;;;3.19;83.29
60589;BME280;46421;48.610;9.334;2022-12-10T12:17:23;97033.25;;;2.92;84.19
60589;BME280;46421;48.610;9.334;2022-12-10T12:22:25;97046.31;;;2.84;83.39
60589;BME280;46421;48.610;9.334;2022-12-10T12:24:56;97047.81;;;3.13;82.27
60589;BME280;46421;48.610;9.334;2022-12-10T12:27:30;97060.25;;;3.03;82.43
60589;BME280;46421;48.610;9.334;2022-12-10T12:30:13;97053.50;;;3.26;80.71
60589;BME280;46421;48.610;9.334;2022-12-10T12:32:49;97045.94;;;3.23;79.08
60589;BME280;46421;48.610;9.334;2022-12-10T12:35:20;97043.56;;;3.38;79.23
60589;BME280;46421;48.610;9.334;2022-12-10T12:37:55;97051.56;;;3.10;82.89
60589;BME280;46421;48.610;9.334;2022-12-10T12:40:30;97047.81;;;3.13;82.16
60589;BME280;46421;48.610;9.334;2022-12-10T12:42:59;97058.53;;;3.20;80.77
60589;BME280;46421;48.610;9.334;2022-12-10T12:45:36;97061.38;;;2.82;84.05
60589;BME280;46421;48.610;9.334;2022-12-10T12:51:12;97071.44;;;2.32;85.90
60589;BME280;46421;48.610;9.334;2022-12-10T12:53:39;97066.78;;;2.62;85.13
60589;BME280;46421;48.610;9.334;2022-12-10T13:01:30;97083.94;;;2.39;87.48
60589;BME280;46421;48.610;9.334;2022-12-10T13:03:58;97079.13;;;2.34;85.70
60589;BME280;46421;48.610;9.334;2022-12-10T13:06:30;97087.88;;;2.71;86.07
60589;BME280;46421;48.610;9.334;2022-12-10T13:11:37;97079.31;;;2.50;86.77
60589;BME280;46421;48.610;9.334;2022-12-10T13:24:43;97078.69;;;2.39;84.45
60589;BME280;46421;48.610;9.334;2022-12-10T13:29:54;97079.59;;;2.47;84.41
60589;BME280;46421;48.610;9.334;2022-12-10T13:46:22;97101.25;;;2.03;85.23
60589;BME280;46421;48.610;9.334;2022-12-10T13:48:50;97103.47;;;1.98;85.89
60589;BME280;46421;48.610;9.334;2022-12-10T13:56:58;97134.34;;;2.04;85.88
60589;BME280;46421;48.610;9.334;2022-12-10T14:05:24;97140.28;;;2.07;85.73
60589;BME280;46421;48.610;9.334;2022-12-10T14:07:54;97140.78;;;2.20;84.43
60589;BME280;46421;48.610;9.334;2022-12-10T14:10:26;97146.31;;;2.17;83.93
60589;BME280;46421;48.610;9.334;2022-12-10T14:12:53;97142.47;;;2.11;85.65
60589;BME280;46421;48.610;9.334;2022-12-10T14:15:26;97143.97;;;2.14;83.82
60589;BME280;46421;48.610;9.334;2022-12-10T14:17:57;97150.25;;;2.03;85.46
60589;BME280;46421;48.610;9.334;2022-12-10T14:20:25;97152.38;;;2.17;85.40
60589;BME280;46421;48.610;9.334;2022-12-10T14:22:52;97160.50;;;2.24;82.72
60589;BME280;46421;48.610;9.334;2022-12-10T14:25:22;97160.78;;;1.83;85.45
60589;BME280;46421;48.610;9.334;2022-12-10T14:27:52;97170.44;;;1.83;85.74
60589;BME280;46421;48.610;9.334;2022-12-10T14:30:25;97174.00;;;1.92;86.78
60589;BME280;46421;48.610;9.334;2022-12-10T14:32:54;97172.53;;;1.79;84.59
60589;BME280;46421;48.610;9.334;2022-12-10T14:35:26;97175.28;;;1.87;86.19
60589;BME280;46421;48.610;9.334;2022-12-10T14:37:55;97171.59;;;1.70;86.28
60589;BME280;46421;48.610;9.334;2022-12-10T14:40:28;97175.72;;;1.73;85.83
60589;BME280;46421;48.610;9.334;2022-12-10T14:43:03;97173.00;;;1.55;87.39
60589;BME280;46421;48.610;9.334;2022-12-10T14:45:38;97178.53;;;1.52;86.63
60589;BME280;46421;48.610;9.334;2022-12-10T14:48:11;97178.09;;;1.56;88.38
60589;BME280;46421;48.610;9.334;2022-12-10T14:50:37;97181.44;;;1.39;88.37
60589;BME280;46421;48.610;9.334;2022-12-10T14:53:08;97184.69;;;1.61;88.35
60589;BME280;46421;48.610;9.334;2022-12-10T14:55:37;97186.09;;;1.45;89.46